Time;durP1;ratioP1;P1;durP2;ratioP2;P2;SDS_P1;SDS_P2;PMS_P1;PMS_P2;Temp;Humidity;BMP_temperature;BMP_pressure;BME280_temperature;BME280_humidity;BME280_pressure;Samples;Min_cycle;Max_cycle;Signal;HPM_P1;HPM_P2
2022/06/25 00:01:37;;;;;;;;;;;;;;;17.85;100.00;-23653.31;1746698;81;20512;-60
2022/06/25 00:04:04;;;;;;;;;;;;;;;17.86;100.00;-23653.62;1733578;82;22027;-60
2022/06/25 00:06:31;;;;;;;;;;;;;;;17.87;100.00;-23654.08;1733563;82;20147;-60
2022/06/25 00:08:58;;;;;;;;;;;;;;;17.91;100.00;-23655.17;1733395;82;20152;-61
2022/06/25 00:14:11;;;;;;;;;;;;;;;17.95;100.00;-23656.41;1733295;82;20163;-59
2022/06/25 00:16:38;;;;;;;;;;;;;;;17.97;100.00;-23657.02;1733460;82;21250;-60
2022/06/25 00:19:05;;;;;;;;;;;;;;;17.97;100.00;-23657.02;1733545;82;20091;-60
2022/06/25 00:21:32;;;;;;;;;;;;;;;17.96;100.00;-23656.71;1733617;82;20130;-59
2022/06/25 00:23:59;;;;;;;;;;;;;;;17.98;100.00;-23657.33;1733410;82;20096;-60
2022/06/25 00:26:27;;;;;;;;;;;;;;;17.99;100.00;-23657.64;1733562;82;20159;-63
2022/06/25 00:28:54;;;;;;;;;;;;;;;17.98;100.00;-23657.33;1733490;82;21151;-59
2022/06/25 00:31:22;;;;;;;;;;;;;;;17.98;100.00;-23657.18;1733515;82;20365;-59
2022/06/25 00:33:48;;;;;;;;;;;;;;;17.98;100.00;-23657.18;1733386;82;20158;-59
2022/06/25 00:36:15;;;;;;;;;;;;;;;17.97;100.00;-23657.02;1733551;82;20187;-58
2022/06/25 00:38:42;;;;;;;;;;;;;;;17.99;100.00;-23657.64;1733531;82;20171;-60
2022/06/25 00:41:09;;;;;;;;;;;;;;;17.99;100.00;-23657.64;1733343;82;21159;-59
2022/06/25 00:43:41;;;;;;;;;;;;;;;18.01;100.00;-23658.11;1733415;82;20140;-59
2022/06/25 00:46:08;;;;;;;;;;;;;;;18.04;100.00;-23659.04;1733502;82;20233;-59
2022/06/25 00:48:34;;;;;;;;;;;;;;;18.05;100.00;-23659.35;1733505;82;20132;-59
2022/06/25 00:51:01;;;;;;;;;;;;;;;18.02;100.00;-23658.58;1733466;82;20203;-59
2022/06/25 00:53:31;;;;;;;;;;;;;;;17.99;100.00;-23657.64;1712769;82;21960;-59
2022/06/25 00:56:01;;;;;;;;;;;;;;;17.99;100.00;-23657.49;1733293;82;20608;-59
2022/06/25 00:58:31;;;;;;;;;;;;;;;17.94;100.00;-23656.09;1733154;82;20179;-59
2022/06/25 01:00:59;;;;;;;;;;;;;;;17.93;100.00;-23655.79;1733263;82;20179;-59
2022/06/25 01:03:27;;;;;;;;;;;;;;;17.90;100.00;-23654.86;1733329;81;20210;-59
2022/06/25 01:05:53;;;;;;;;;;;;;;;17.87;100.00;-23653.93;1733303;82;21182;-59
2022/06/25 01:08:20;;;;;;;;;;;;;;;17.85;100.00;-23653.31;1733429;82;20222;-59
2022/06/25 01:10:47;;;;;;;;;;;;;;;17.89;100.00;-23654.55;1712618;82;20490;-60
2022/06/25 01:13:14;;;;;;;;;;;;;;;17.89;100.00;-23654.55;1733411;82;20400;-61
2022/06/25 01:15:41;;;;;;;;;;;;;;;17.87;100.00;-23653.93;1733516;82;20204;-61
2022/06/25 01:18:08;;;;;;;;;;;;;;;17.87;100.00;-23653.93;1733625;82;21151;-59
2022/06/25 01:20:35;;;;;;;;;;;;;;;17.86;100.00;-23653.62;1733457;82;20179;-59
2022/06/25 01:23:02;;;;;;;;;;;;;;;17.85;100.00;-23653.31;1733462;82;20132;-59
2022/06/25 01:25:35;;;;;;;;;;;;;;;17.87;100.00;-23653.93;1733433;82;20431;-60
2022/06/25 01:28:03;;;;;;;;;;;;;;;17.87;100.00;-23653.93;1732972;82;20187;-60
2022/06/25 01:30:31;;;;;;;;;;;;;;;17.88;100.00;-23654.24;1733439;82;21952;-60
2022/06/25 01:32:58;;;;;;;;;;;;;;;17.88;100.00;-23654.39;1733527;82;20163;-61
2022/06/25 01:35:25;;;;;;;;;;;;;;;17.90;100.00;-23654.86;1733323;82;20139;-61
2022/06/25 01:37:52;;;;;;;;;;;;;;;17.92;100.00;-23655.48;1733378;82;20796;-60
2022/06/25 01:40:19;;;;;;;;;;;;;;;17.91;100.00;-23654.19;1733604;82;20198;-61
2022/06/25 01:42:58;;;;;;;;;;;;;;;17.92;100.00;-21981.46;1733380;82;21236;-61
2022/06/25 01:45:31;;;;;;;;;;;;;;;17.93;100.00;-21312.14;1733321;82;20397;-60
2022/06/25 01:47:58;;;;;;;;;;;;;;;17.93;100.00;-20140.38;1733274;82;20150;-60
2022/06/25 01:50:25;;;;;;;;;;;;;;;17.94;100.00;-19638.13;1733400;82;20128;-60
2022/06/25 01:52:53;;;;;;;;;;;;;;;17.95;100.00;-20140.76;1733624;82;20373;-60
2022/06/25 01:55:20;;;;;;;;;;;;;;;17.94;100.00;-19638.25;1733311;82;21049;-62
2022/06/25 01:57:48;;;;;;;;;;;;;;;17.90;100.00;-18129.87;1733204;82;20483;-61
2022/06/25 02:00:20;;;;;;;;;;;;;;;17.87;100.00;-18631.77;1733551;82;20206;-60
2022/06/25 02:02:48;;;;;;;;;;;;;;;17.86;100.00;-17793.91;1743792;81;20793;-61
2022/06/25 02:05:16;;;;;;;;;;;;;;;17.87;100.00;-17794.02;1752519;82;20206;-61
2022/06/25 02:07:43;;;;;;;;;;;;;;;17.85;100.00;-16788.26;1752463;81;21241;-62
2022/06/25 02:10:10;;;;;;;;;;;;;;;17.84;100.00;-15111.60;1752499;82;20095;-62
2022/06/25 02:12:37;;;;;;;;;;;;;;;17.84;100.00;-14944.00;1752467;81;20147;-61
2022/06/25 02:15:06;;;;;;;;;;;;;;;17.83;100.00;-14943.83;1752210;82;20147;-60
2022/06/25 02:17:32;;;;;;;;;;;;;;;17.86;100.00;-14944.25;1752444;82;20462;-61
2022/06/25 02:19:59;;;;;;;;;;;;;;;17.86;100.00;-13937.93;1752430;82;21145;-61
2022/06/25 02:22:26;;;;;;;;;;;;;;;17.84;100.00;-12931.03;1752355;82;20155;-61
2022/06/25 02:24:54;;;;;;;;;;;;;;;17.83;100.00;-12595.30;1752356;81;20147;-61
2022/06/25 02:27:21;;;;;;;;;;;;;;;17.83;100.00;-14608.44;1752473;82;20475;-62
2022/06/25 02:29:48;;;;;;;;;;;;;;;17.85;100.00;-15111.86;1752342;82;20467;-62
2022/06/25 02:32:14;;;;;;;;;;;;;;;17.90;100.00;-15112.63;1752262;81;22027;-61
2022/06/25 02:34:42;;;;;;;;;;;;;;;17.98;100.00;-13939.68;1752256;81;20286;-61
2022/06/25 02:37:09;;;;;;;;;;;;;;;18.10;100.00;-13941.44;1752298;82;20150;-61
2022/06/25 02:39:37;;;;;;;;;;;;;;;18.21;100.00;-13439.48;1752446;81;20191;-61
2022/06/25 02:42:04;;;;;;;;;;;;;;;18.30;100.00;-12937.08;1752402;82;20171;-62
2022/06/25 02:44:32;;;;;;;;;;;;;;;18.33;100.00;-8400.47;1752444;82;20662;-62
2022/06/25 02:47:00;;;;;;;;;;;;;;;18.32;100.00;-6213.66;1752163;82;20217;-61
2022/06/25 02:49:28;;;;;;;;;;;;;;;18.32;100.00;-3857.07;1751871;81;20190;-61
2022/06/25 02:51:55;;;;;;;;;;;;;;;18.32;100.00;-5540.52;1752217;82;20143;-61
2022/06/25 02:54:22;;;;;;;;;;;;;;;18.33;100.00;-4530.56;1752421;81;20154;-61
2022/06/25 02:59:40;;;;;;;;;;;;;;;18.21;100.00;8118.08;1752360;82;20191;-60
2022/06/25 03:02:07;;;;;;;;;;;;;;;18.19;100.00;4571.25;1748908;81;20203;-61
2022/06/25 03:04:35;;;;;;;;;;;;;;;18.17;100.00;8793.18;1730586;83;20388;-62
2022/06/25 03:07:03;;;;;;;;;;;;;;;18.18;100.00;7610.61;1730645;83;20163;-62
2022/06/25 03:09:32;;;;;;;;;;;;;;;18.20;100.00;8455.73;1712027;83;20159;-62
2022/06/25 03:11:59;;;;;;;;;;;;;;;18.22;100.00;8287.27;1730633;83;20148;-62
2022/06/25 03:14:27;;;;;;;;;;;;;;;18.23;100.00;11499.68;1730706;83;20196;-62
2022/06/25 03:16:54;;;;;;;;;;;;;;;18.22;100.00;14545.49;1730724;83;20140;-62
2022/06/25 03:19:21;;;;;;;;;;;;;;;18.27;100.00;15393.75;1731003;83;20400;-62
2022/06/25 03:22:02;;;;;;;;;;;;;;;18.31;100.00;19801.67;1710811;82;21155;-61
2022/06/25 03:24:30;;;;;;;;;;;;;;;18.37;100.00;27615.23;1730843;83;20195;-61
2022/06/25 03:26:57;;;;;;;;;;;;;;;18.35;100.00;48762.06;1730633;83;20475;-61
2022/06/25 03:29:24;;;;;;;;;;;;;;;18.31;100.00;59210.56;1730941;83;20712;-62
2022/06/25 03:31:51;;;;;;;;;;;;;;;18.26;100.00;97337.41;1730777;83;20167;-61
2022/06/25 03:34:37;;;;;;;;;;;;;;;18.18;100.00;105139.27;1730885;83;21079;-61
2022/06/25 03:37:04;;;;;;;;;;;;;;;18.18;100.00;103923.31;1730616;83;20171;-61
2022/06/25 03:39:31;;;;;;;;;;;;;;;18.19;100.00;119427.71;1730922;83;20191;-62
2022/06/25 03:41:58;;;;;;;;;;;;;;;18.21;100.00;116988.43;1730943;83;20783;-62
2022/06/25 03:44:39;;;;;;;;;;;;;;;18.25;100.00;106891.31;1730514;82;20203;-62
2022/06/25 03:47:17;;;;;;;;;;;;;;;18.30;100.00;128715.96;1729481;82;21842;-62
2022/06/25 03:49:43;;;;;;;;;;;;;;;18.27;100.00;149329.47;1730889;83;20226;-62
2022/06/25 03:52:15;;;;;;;;;;;;;;;18.30;100.00;128191.91;1730777;83;20419;-62
2022/06/25 03:54:42;;;;;;;;;;;;;;;18.36;100.00;127677.75;1730913;83;20176;-62
2022/06/25 03:57:10;;;;;;;;;;;;;;;18.43;100.00;108664.27;1730769;83;20216;-62
2022/06/25 03:59:44;;;;;;;;;;;;;;;18.49;100.00;127881.36;1729844;82;21343;-61
2022/06/25 04:02:16;;;;;;;;;;;;;;;18.46;100.00;152292.62;1732039;82;20408;-61
2022/06/25 04:04:44;;;;;;;;;;;;;;;18.44;100.00;152288.69;1749596;82;20387;-62
2022/06/25 04:07:11;;;;;;;;;;;;;;;18.45;100.00;152291.30;1752222;82;21119;-62
2022/06/25 04:09:38;;;;;;;;;;;;;;;18.53;100.00;152309.55;1752610;82;20174;-62
2022/06/25 04:12:06;;;;;;;;;;;;;;;18.58;100.00;152323.91;1752415;82;21112;-62
2022/06/25 04:14:33;;;;;;;;;;;;;;;18.68;100.00;152347.38;1752411;82;20173;-62
2022/06/25 04:17:00;;;;;;;;;;;;;;;18.70;100.00;152352.64;1752391;81;20198;-62
2022/06/25 04:19:28;;;;;;;;;;;;;;;18.70;100.00;152352.64;1752575;82;20740;-63
2022/06/25 04:21:55;;;;;;;;;;;;;;;18.70;100.00;152352.64;1752384;82;20170;-61
2022/06/25 04:24:22;;;;;;;;;;;;;;;18.76;100.00;152368.30;1752599;82;21191;-61
2022/06/25 04:26:49;;;;;;;;;;;;;;;18.81;100.00;152381.33;1752265;81;20178;-62
2022/06/25 04:29:15;;;;;;;;;;;;;;;18.82;100.00;152382.66;1752485;82;20194;-61
2022/06/25 04:31:46;;;;;;;;;;;;;;;18.80;100.00;152378.72;1752347;81;20629;-62
2022/06/25 04:34:18;;;;;;;;;;;;;;;18.79;100.00;152376.11;1750800;81;20174;-62
2022/06/25 04:36:45;;;;;;;;;;;;;;;18.79;100.00;152374.78;1752426;82;21253;-62
2022/06/25 04:39:14;;;;;;;;;;;;;;;18.80;100.00;152378.72;1750930;81;20458;-62
2022/06/25 04:41:42;;;;;;;;;;;;;;;18.86;100.00;152394.38;1752505;82;20142;-62
2022/06/25 04:44:10;;;;;;;;;;;;;;;18.93;100.00;152410.06;1751628;81;20449;-62
2022/06/25 04:46:37;;;;;;;;;;;;;;;19.04;100.00;152438.81;1752491;81;20151;-62
2022/06/25 04:49:04;;;;;;;;;;;;;;;19.14;100.00;152464.94;1752505;81;21223;-62
2022/06/25 04:51:33;;;;;;;;;;;;;;;19.16;100.00;152470.16;1751989;81;20151;-63
2022/06/25 04:54:03;;;;;;;;;;;;;;;19.21;100.00;152480.59;1752400;81;20170;-62
2022/06/25 04:56:38;;;;;;;;;;;;;;;19.30;100.00;152504.06;1752388;82;21816;-63
2022/06/25 04:59:05;;;;;;;;;;;;;;;19.39;100.00;152527.59;1752300;82;20248;-62
2022/06/25 05:01:52;;;;;;;;;;;;;;;19.49;100.00;152551.06;1752342;81;20534;-62
2022/06/25 05:04:20;;;;;;;;;;;;;;;19.66;100.00;152594.14;1736334;81;20088;-62
2022/06/25 05:06:49;;;;;;;;;;;;;;;19.74;100.00;152616.34;1733390;82;20459;-62
2022/06/25 05:09:16;;;;;;;;;;;;;;;19.82;100.00;152635.94;1733482;82;21014;-62
2022/06/25 05:11:43;;;;;;;;;;;;;;;19.92;100.00;152660.81;1733551;82;20151;-62
2022/06/25 05:14:10;;;;;;;;;;;;;;;20.00;100.00;152681.69;1733581;82;21229;-63
2022/06/25 05:16:36;;;;;;;;;;;;;;;20.17;100.00;152723.50;1733484;82;20206;-63
2022/06/25 05:19:03;;;;;;;;;;;;;;;20.31;100.00;152760.09;1733395;82;20256;-62
2022/06/25 05:21:31;;;;;;;;;;;;;;;20.48;100.00;152801.91;1733481;82;20589;-62
2022/06/25 05:24:00;;;;;;;;;;;;;;;20.61;100.00;152835.84;1733385;82;20447;-62
2022/06/25 05:26:26;;;;;;;;;;;;;;;20.77;100.00;152875.05;1733608;82;21142;-62
2022/06/25 05:28:53;;;;;;;;;;;;;;;20.84;100.00;152893.38;1733308;82;20335;-62
2022/06/25 05:31:20;;;;;;;;;;;;;;;20.95;100.00;152919.53;1733467;82;20188;-62
2022/06/25 05:33:49;;;;;;;;;;;;;;;20.98;98.79;152927.38;1733552;82;21000;-62
2022/06/25 05:36:16;;;;;;;;;;;;;;;20.95;98.06;152919.53;1733295;82;20184;-61
2022/06/25 05:38:43;;;;;;;;;;;;;;;20.97;98.98;152924.75;1733414;82;21203;-64
2022/06/25 05:41:11;;;;;;;;;;;;;;;21.09;98.45;152956.09;1733380;82;20202;-62
2022/06/25 05:43:38;;;;;;;;;;;;;;;21.04;95.77;152943.05;1733488;82;20156;-62
2022/06/25 05:46:04;;;;;;;;;;;;;;;20.92;95.31;152911.70;1733459;82;20683;-63
2022/06/25 05:48:31;;;;;;;;;;;;;;;20.87;96.28;152899.94;1733451;82;20182;-62
2022/06/25 05:50:58;;;;;;;;;;;;;;;20.91;95.75;152909.09;1733385;82;22150;-62
2022/06/25 05:53:25;;;;;;;;;;;;;;;20.98;96.67;152927.38;1733370;82;20202;-62
2022/06/25 05:55:51;;;;;;;;;;;;;;;21.01;94.98;152935.20;1733413;82;20135;-62
2022/06/25 05:58:19;;;;;;;;;;;;;;;20.96;93.75;152923.44;1733298;82;20755;-62
2022/06/25 06:00:46;;;;;;;;;;;;;;;20.91;93.71;152909.09;1733415;82;20206;-62
2022/06/25 06:03:13;;;;;;;;;;;;;;;20.92;92.66;152911.70;1733216;81;21135;-62
2022/06/25 06:05:40;;;;;;;;;;;;;;;20.92;93.20;152912.98;1733412;82;20176;-63
2022/06/25 06:08:06;;;;;;;;;;;;;;;20.95;93.72;152919.53;1733285;82;20111;-64
2022/06/25 06:10:35;;;;;;;;;;;;;;;21.01;93.60;152935.20;1733446;82;20602;-63
2022/06/25 06:13:03;;;;;;;;;;;;;;;21.10;93.04;152958.70;1733319;82;20452;-63
2022/06/25 06:15:29;;;;;;;;;;;;;;;21.15;92.57;152971.81;1733423;82;21262;-63
2022/06/25 06:17:56;;;;;;;;;;;;;;;21.28;93.97;153003.16;1733502;82;20419;-64
2022/06/25 06:20:23;;;;;;;;;;;;;;;21.47;92.61;153052.83;1733336;82;20459;-65
2022/06/25 06:22:50;;;;;;;;;;;;;;;21.57;90.77;153076.39;1733299;82;20249;-64
2022/06/25 06:25:16;;;;;;;;;;;;;;;21.58;89.62;153080.28;1733332;82;20553;-63
2022/06/25 06:27:43;;;;;;;;;;;;;;;21.63;90.29;153092.06;1733303;82;21293;-63
2022/06/25 06:30:11;;;;;;;;;;;;;;;21.61;90.48;153086.84;1733139;82;20448;-64
2022/06/25 06:32:38;;;;;;;;;;;;;;;21.57;91.65;153076.39;1733311;82;20186;-64
2022/06/25 06:35:05;;;;;;;;;;;;;;;21.58;91.58;153080.28;1733458;82;20140;-64
2022/06/25 06:37:32;;;;;;;;;;;;;;;21.65;92.57;153096.02;1733063;82;20416;-64
2022/06/25 06:39:59;;;;;;;;;;;;;;;21.80;92.02;153133.97;1732963;82;21126;-64
2022/06/25 06:42:25;;;;;;;;;;;;;;;21.99;92.14;153183.61;1733057;82;21027;-63
2022/06/25 06:44:54;;;;;;;;;;;;;;;22.17;91.13;153228.09;1733445;82;20174;-63
2022/06/25 06:47:21;;;;;;;;;;;;;;;22.37;89.82;153279.12;1733149;82;20191;-63
2022/06/25 06:49:47;;;;;;;;;;;;;;;22.50;88.90;153311.88;1733434;82;20229;-63
2022/06/25 06:52:14;;;;;;;;;;;;;;;22.49;84.07;153307.92;1733569;82;21112;-63
2022/06/25 06:54:41;;;;;;;;;;;;;;;22.30;85.14;153262.11;1733447;82;20167;-63
2022/06/25 06:57:07;;;;;;;;;;;;;;;22.17;83.69;153228.09;1733440;82;21110;-63
2022/06/25 06:59:35;;;;;;;;;;;;;;;22.08;84.66;153204.56;1733733;82;20126;-64
2022/06/25 07:02:01;;;;;;;;;;;;;;;22.11;84.39;153212.41;1733668;82;20166;-63
2022/06/25 07:04:31;;;;;;;;;;;;;;;22.14;84.91;153220.25;1746000;81;21090;-63
2022/06/25 07:06:58;;;;;;;;;;;;;;;22.31;87.29;153264.72;1752555;82;20130;-61
2022/06/25 07:09:25;;;;;;;;;;;;;;;22.58;87.81;153331.50;1752500;81;20420;-62
2022/06/25 07:11:52;;;;;;;;;;;;;;;22.80;87.30;153387.72;1752610;82;20719;-62
2022/06/25 07:14:19;;;;;;;;;;;;;;;22.91;86.60;153415.19;1752711;82;20185;-61
2022/06/25 07:16:45;;;;;;;;;;;;;;;22.99;84.31;153434.83;1752598;81;21228;-62
2022/06/25 07:19:12;;;;;;;;;;;;;;;23.09;81.38;153460.98;1752453;81;20171;-62
2022/06/25 07:21:39;;;;;;;;;;;;;;;23.22;81.07;153492.41;1752694;81;20162;-63
2022/06/25 07:24:06;;;;;;;;;;;;;;;23.37;81.41;153530.39;1752555;81;20429;-62
2022/06/25 07:26:33;;;;;;;;;;;;;;;23.55;82.14;153576.23;1752777;81;20194;-62
2022/06/25 07:29:01;;;;;;;;;;;;;;;23.72;81.63;153620.70;1752474;81;21244;-62
2022/06/25 07:31:28;;;;;;;;;;;;;;;23.83;81.22;153646.91;1752635;81;20139;-62
2022/06/25 07:33:55;;;;;;;;;;;;;;;23.86;81.78;153656.03;1752737;82;20145;-62
2022/06/25 07:36:22;;;;;;;;;;;;;;;23.99;81.32;153688.81;1752670;82;20182;-61
2022/06/25 07:38:48;;;;;;;;;;;;;;;24.05;78.60;153701.95;1752672;82;20147;-62
2022/06/25 07:41:15;;;;;;;;;;;;;;;23.91;79.58;153667.84;1752737;82;20343;-62
2022/06/25 07:43:42;;;;;;;;;;;;;;;23.82;79.22;153644.30;1752753;82;20236;-62
2022/06/25 07:46:09;;;;;;;;;;;;;;;23.68;78.79;153608.97;1752638;81;20139;-61
2022/06/25 07:48:36;;;;;;;;;;;;;;;23.61;78.49;153591.94;1752594;82;20173;-61
2022/06/25 07:53:48;;;;;;;;;;;;;;;23.55;79.03;153577.52;1752543;82;21144;-62
2022/06/25 07:56:14;;;;;;;;;;;;;;;23.51;79.67;153567.06;1752530;82;20203;-62
2022/06/25 07:58:41;;;;;;;;;;;;;;;23.51;79.67;153567.06;1752481;82;20178;-62
2022/06/25 08:01:08;;;;;;;;;;;;;;;23.49;79.66;153560.50;1752639;82;20166;-62
2022/06/25 08:03:35;;;;;;;;;;;;;;;23.55;81.31;153576.23;1749451;82;20179;-61
2022/06/25 08:06:02;;;;;;;;;;;;;;;23.66;81.41;153605.02;1730831;83;21248;-62
2022/06/25 08:08:29;;;;;;;;;;;;;;;23.82;81.43;153644.30;1730924;83;20144;-60
2022/06/25 08:10:57;;;;;;;;;;;;;;;23.94;80.86;153674.41;1730913;83;20175;-61
2022/06/25 08:13:24;;;;;;;;;;;;;;;23.87;80.12;153657.38;1730986;83;20209;-60
2022/06/25 08:15:51;;;;;;;;;;;;;;;23.78;81.05;153635.11;1730984;83;20216;-61
2022/06/25 08:18:18;;;;;;;;;;;;;;;23.72;80.61;153620.70;1730636;83;21238;-61
2022/06/25 08:20:44;;;;;;;;;;;;;;;23.69;81.15;153612.86;1718688;83;20235;-60
2022/06/25 08:23:11;;;;;;;;;;;;;;;23.76;81.47;153629.87;1746235;82;20145;-60
2022/06/25 08:25:38;;;;;;;;;;;;;;;23.78;81.45;153633.83;1744145;81;20404;-61
2022/06/25 08:28:05;;;;;;;;;;;;;;;23.78;81.23;153633.83;1740005;82;20172;-61
2022/06/25 08:30:33;;;;;;;;;;;;;;;23.79;81.11;153636.45;1737332;82;21139;-62
2022/06/25 08:32:59;;;;;;;;;;;;;;;23.84;81.42;153649.53;1731187;82;20230;-60
2022/06/25 08:35:26;;;;;;;;;;;;;;;23.92;80.72;153669.17;1729311;83;20420;-60
2022/06/25 08:37:52;;;;;;;;;;;;;;;23.94;79.26;153675.69;1729400;83;20909;-60
2022/06/25 08:40:20;;;;;;;;;;;;;;;23.91;78.66;153666.56;1729245;83;20136;-60
2022/06/25 08:42:50;;;;;;;;;;;;;;;23.86;79.67;153654.75;1729425;83;21263;-61
2022/06/25 08:45:17;;;;;;;;;;;;;;;23.88;79.21;153659.98;1728989;83;20172;-61
2022/06/25 08:47:47;;;;;;;;;;;;;;;23.85;78.46;153652.14;1729391;83;20187;-61
2022/06/25 08:50:15;;;;;;;;;;;;;;;23.87;79.05;153657.38;1728973;82;20215;-60
2022/06/25 08:52:51;;;;;;;;;;;;;;;23.98;78.27;153686.16;1729462;83;20472;-60
2022/06/25 08:55:28;;;;;;;;;;;;;;;24.13;77.66;153722.88;1728594;82;21164;-59
2022/06/25 08:57:55;;;;;;;;;;;;;;;24.27;76.48;153758.22;1729267;83;20179;-59
2022/06/25 09:00:22;;;;;;;;;;;;;;;24.32;75.41;153772.64;1729236;83;20144;-59
2022/06/25 09:02:49;;;;;;;;;;;;;;;24.37;74.73;153783.11;1729284;83;20168;-59
2022/06/25 09:05:15;;;;;;;;;;;;;;;24.35;74.54;153779.20;1731173;82;20210;-61
2022/06/25 09:07:53;;;;;;;;;;;;;;;24.37;74.29;153783.11;1731982;83;21248;-60
2022/06/25 09:10:21;;;;;;;;;;;;;;;24.42;73.54;153796.19;1731596;83;20140;-61
2022/06/25 09:12:51;;;;;;;;;;;;;;;24.44;72.84;153801.47;1731968;82;20439;-60
2022/06/25 09:15:19;;;;;;;;;;;;;;;24.43;72.25;153798.86;1731861;83;20144;-60
2022/06/25 09:17:48;;;;;;;;;;;;;;;24.43;71.71;153798.86;1731932;82;20459;-60
2022/06/25 09:20:15;;;;;;;;;;;;;;;24.43;71.65;153798.86;1731639;83;21225;-61
2022/06/25 09:22:43;;;;;;;;;;;;;;;24.42;71.75;153796.19;1731857;82;20168;-60
2022/06/25 09:25:10;;;;;;;;;;;;;;;24.41;71.72;153793.56;1710104;83;20152;-59
2022/06/25 09:27:36;;;;;;;;;;;;;;;24.31;71.79;153770.03;1731875;82;20191;-59
2022/06/25 09:30:09;;;;;;;;;;;;;;;24.27;72.15;153758.22;1731690;83;20168;-59
2022/06/25 09:32:47;;;;;;;;;;;;;;;24.22;72.82;153746.47;1729404;83;21146;-60
2022/06/25 09:35:37;;;;;;;;;;;;;;;24.22;73.39;153745.14;1731514;83;21301;-60
2022/06/25 09:38:09;;;;;;;;;;;;;;;24.26;73.18;153756.94;1731709;82;20582;-60
2022/06/25 09:40:36;;;;;;;;;;;;;;;24.24;72.03;153750.38;1731704;82;20168;-60
2022/06/25 09:43:11;;;;;;;;;;;;;;;24.18;72.40;153737.28;1731749;83;20185;-60
2022/06/25 09:45:38;;;;;;;;;;;;;;;24.20;71.51;153741.19;1731758;82;21249;-60
2022/06/25 09:48:11;;;;;;;;;;;;;;;24.15;70.01;153728.11;1732089;83;20163;-60
2022/06/25 09:50:39;;;;;;;;;;;;;;;24.03;69.61;153699.33;1731301;82;20147;-60
2022/06/25 09:53:06;;;;;;;;;;;;;;;23.98;70.81;153686.16;1731746;83;20175;-60
2022/06/25 09:55:34;;;;;;;;;;;;;;;23.96;71.47;153680.92;1731936;82;20490;-61
2022/06/25 09:58:01;;;;;;;;;;;;;;;23.96;71.03;153679.64;1731645;83;21245;-61
2022/06/25 10:00:29;;;;;;;;;;;;;;;23.93;70.83;153671.78;1731629;83;20245;-61
2022/06/25 10:02:58;;;;;;;;;;;;;;;23.89;69.16;153662.61;1731819;83;20211;-61
2022/06/25 10:05:30;;;;;;;;;;;;;;;23.82;70.23;153644.30;1742118;82;20679;-60
2022/06/25 10:08:01;;;;;;;;;;;;;;;23.82;70.53;153644.30;1747205;82;20179;-60
2022/06/25 10:10:30;;;;;;;;;;;;;;;23.84;69.34;153649.53;1747941;82;21244;-61
2022/06/25 10:12:57;;;;;;;;;;;;;;;23.80;70.12;153639.06;1747635;82;20217;-61
2022/06/25 10:15:23;;;;;;;;;;;;;;;23.82;71.17;153644.30;1747863;81;20139;-61
2022/06/25 10:17:54;;;;;;;;;;;;;;;23.85;71.25;153652.14;1747898;81;20425;-61
2022/06/25 10:20:20;;;;;;;;;;;;;;;23.93;71.05;153673.08;1747860;81;20175;-61
2022/06/25 10:22:49;;;;;;;;;;;;;;;23.96;70.39;153680.92;1747966;82;21122;-61
2022/06/25 10:25:19;;;;;;;;;;;;;;;23.88;70.43;153661.33;1747608;82;20442;-61
2022/06/25 10:27:46;;;;;;;;;;;;;;;23.87;70.34;153657.38;1746561;82;20531;-61
2022/06/25 10:30:15;;;;;;;;;;;;;;;23.87;68.81;153657.38;1747224;82;20218;-61
2022/06/25 10:32:46;;;;;;;;;;;;;;;23.80;67.63;153639.06;1747618;82;20462;-61
2022/06/25 10:35:30;;;;;;;;;;;;;;;23.77;68.06;153632.50;1746676;82;21908;-62
2022/06/25 10:38:03;;;;;;;;;;;;;;;23.78;67.71;153633.83;1747484;82;20194;-61
2022/06/25 10:40:31;;;;;;;;;;;;;;;23.78;67.78;153633.83;1747112;82;20150;-60
2022/06/25 10:43:03;;;;;;;;;;;;;;;23.75;68.25;153628.55;1747818;81;20373;-61
2022/06/25 10:45:37;;;;;;;;;;;;;;;23.78;67.55;153633.83;1747852;82;20542;-62
2022/06/25 10:48:04;;;;;;;;;;;;;;;23.72;66.90;153619.42;1747594;82;21150;-60
2022/06/25 10:50:32;;;;;;;;;;;;;;;23.66;67.75;153603.73;1747403;82;20214;-61
2022/06/25 10:53:05;;;;;;;;;;;;;;;23.60;67.97;153589.31;1747864;81;20151;-61
2022/06/25 10:55:51;;;;;;;;;;;;;;;23.58;67.44;153585.37;1747702;82;21092;-61
2022/06/25 10:58:23;;;;;;;;;;;;;;;23.52;65.81;153569.67;1747744;81;20190;-61
2022/06/25 11:01:01;;;;;;;;;;;;;;;23.45;66.22;153551.38;1747958;82;21212;-61
2022/06/25 11:03:32;;;;;;;;;;;;;;;23.41;66.95;153542.19;1747759;81;21301;-62
2022/06/25 11:06:00;;;;;;;;;;;;;;;23.39;66.78;153536.97;1747795;82;20201;-60
2022/06/25 11:08:34;;;;;;;;;;;;;;;23.41;67.08;153540.86;1747918;81;20168;-60
2022/06/25 11:11:01;;;;;;;;;;;;;;;23.44;66.31;153550.03;1747884;81;20174;-60
2022/06/25 11:13:28;;;;;;;;;;;;;;;23.46;66.74;153553.98;1747970;81;21142;-60
2022/06/25 11:15:55;;;;;;;;;;;;;;;23.54;66.54;153573.56;1747882;82;20157;-61
2022/06/25 11:18:23;;;;;;;;;;;;;;;23.58;65.23;153584.09;1747851;82;20163;-61
2022/06/25 11:20:51;;;;;;;;;;;;;;;23.56;65.41;153578.86;1747817;81;20178;-62
2022/06/25 11:23:18;;;;;;;;;;;;;;;23.58;65.79;153585.37;1747982;81;20186;-61
2022/06/25 11:28:53;;;;;;;;;;;;;;;23.66;65.58;153605.02;1747829;81;20182;-61
2022/06/25 11:31:22;;;;;;;;;;;;;;;23.69;64.37;153611.58;1747720;81;20139;-61
2022/06/25 11:33:52;;;;;;;;;;;;;;;23.64;65.04;153598.44;1747817;81;20175;-62
2022/06/25 11:36:19;;;;;;;;;;;;;;;23.63;65.27;153597.16;1747448;82;20174;-62
2022/06/25 11:38:54;;;;;;;;;;;;;;;23.63;65.22;153597.16;1748011;81;21253;-62
2022/06/25 11:41:21;;;;;;;;;;;;;;;23.66;64.30;153603.73;1747741;82;20471;-61
2022/06/25 11:43:48;;;;;;;;;;;;;;;23.71;64.26;153616.81;1748136;81;20114;-61
2022/06/25 11:46:18;;;;;;;;;;;;;;;23.72;63.73;153620.70;1747917;81;20128;-61
2022/06/25 11:48:47;;;;;;;;;;;;;;;23.71;63.44;153618.09;1748212;81;20186;-60
2022/06/25 11:51:14;;;;;;;;;;;;;;;23.73;63.37;153623.31;1747859;81;21145;-60
2022/06/25 11:53:41;;;;;;;;;;;;;;;23.78;62.46;153633.83;1747957;82;20163;-61
2022/06/25 11:56:08;;;;;;;;;;;;;;;23.78;62.02;153633.83;1748201;82;20083;-61
2022/06/25 11:58:35;;;;;;;;;;;;;;;23.79;61.36;153636.45;1748118;81;20690;-61
2022/06/25 12:01:04;;;;;;;;;;;;;;;23.81;61.60;153641.69;1748001;82;20178;-60
2022/06/25 12:03:31;;;;;;;;;;;;;;;23.91;62.37;153667.84;1747933;82;21058;-61
2022/06/25 12:05:59;;;;;;;;;;;;;;;23.94;62.06;153675.69;1737955;82;20641;-60
2022/06/25 12:08:27;;;;;;;;;;;;;;;23.94;61.52;153674.41;1731981;83;20128;-61
2022/06/25 12:10:55;;;;;;;;;;;;;;;23.94;61.62;153675.69;1731978;83;20144;-61
2022/06/25 12:13:22;;;;;;;;;;;;;;;23.94;61.01;153675.69;1731830;83;20460;-61
2022/06/25 12:15:58;;;;;;;;;;;;;;;23.97;60.87;153683.53;1731889;82;21938;-61
2022/06/25 12:18:42;;;;;;;;;;;;;;;23.99;60.35;153688.81;1731941;83;20174;-61
2022/06/25 12:21:10;;;;;;;;;;;;;;;24.02;60.83;153696.72;1731844;83;20183;-61
2022/06/25 12:23:51;;;;;;;;;;;;;;;24.05;59.71;153703.23;1711183;83;20444;-61
2022/06/25 12:26:28;;;;;;;;;;;;;;;24.07;59.72;153707.19;1731639;81;20459;-60
2022/06/25 12:29:08;;;;;;;;;;;;;;;24.13;60.02;153722.88;1732247;82;21737;-61
2022/06/25 12:31:35;;;;;;;;;;;;;;;24.19;59.03;153738.58;1731120;82;20222;-60
2022/06/25 12:34:02;;;;;;;;;;;;;;;24.21;58.08;153743.86;1731819;82;20183;-60
2022/06/25 12:36:30;;;;;;;;;;;;;;;24.23;57.10;153749.09;1731862;83;20184;-60
2022/06/25 12:38:56;;;;;;;;;;;;;;;24.27;56.05;153759.56;1731961;82;20590;-60
2022/06/25 12:41:43;;;;;;;;;;;;;;;24.32;55.81;153772.64;1731889;82;21977;-60
2022/06/25 12:44:12;;;;;;;;;;;;;;;24.42;55.19;153796.19;1731710;82;20443;-61
2022/06/25 12:46:39;;;;;;;;;;;;;;;24.44;54.96;153801.47;1731838;83;20191;-60
2022/06/25 12:49:06;;;;;;;;;;;;;;;24.46;55.48;153807.98;1731810;83;20148;-62
2022/06/25 12:51:33;;;;;;;;;;;;;;;24.54;54.55;153827.64;1731905;82;20609;-61